sensor_id;sensor_type;location;lat;lon;timestamp;temperature;humidity
38866;DHT22;62686;48.984;8.394;2024-02-26T00:00:14;8.70;99.90
38866;DHT22;62686;48.984;8.394;2024-02-26T00:02:43;8.70;99.90
38866;DHT22;62686;48.984;8.394;2024-02-26T00:05:11;8.70;99.90
38866;DHT22;62686;48.984;8.394;2024-02-26T00:07:40;8.70;99.90
38866;DHT22;62686;48.984;8.394;2024-02-26T00:10:09;8.70;99.90
38866;DHT22;62686;48.984;8.394;2024-02-26T00:12:38;8.80;99.90
38866;DHT22;62686;48.984;8.394;2024-02-26T00:15:08;8.90;99.90
38866;DHT22;62686;48.984;8.394;2024-02-26T00:17:38;8.90;99.90
38866;DHT22;62686;48.984;8.394;2024-02-26T00:20:07;8.80;99.90
38866;DHT22;62686;48.984;8.394;2024-02-26T00:22:38;8.70;99.90
38866;DHT22;62686;48.984;8.394;2024-02-26T00:25:07;8.70;99.90
38866;DHT22;62686;48.984;8.394;2024-02-26T00:27:35;8.60;99.90
38866;DHT22;62686;48.984;8.394;2024-02-26T00:30:05;8.60;99.90
38866;DHT22;62686;48.984;8.394;2024-02-26T00:32:34;8.60;99.90
38866;DHT22;62686;48.984;8.394;2024-02-26T00:35:04;8.50;99.90
38866;DHT22;62686;48.984;8.394;2024-02-26T00:37:33;8.40;99.90
38866;DHT22;62686;48.984;8.394;2024-02-26T00:40:02;8.40;99.90
38866;DHT22;62686;48.984;8.394;2024-02-26T00:42:31;8.40;99.90
38866;DHT22;62686;48.984;8.394;2024-02-26T00:44:59;8.40;99.90
38866;DHT22;62686;48.984;8.394;2024-02-26T00:47:28;8.50;99.90
38866;DHT22;62686;48.984;8.394;2024-02-26T00:49:59;8.50;99.90
38866;DHT22;62686;48.984;8.394;2024-02-26T00:55:11;8.40;99.90
38866;DHT22;62686;48.984;8.394;2024-02-26T00:57:39;8.40;99.90
38866;DHT22;62686;48.984;8.394;2024-02-26T01:00:08;8.30;99.90
38866;DHT22;62686;48.984;8.394;2024-02-26T01:13:19;8.20;99.90
38866;DHT22;62686;48.984;8.394;2024-02-26T01:15:47;7.90;99.90
38866;DHT22;62686;48.984;8.394;2024-02-26T01:18:16;7.90;99.90
38866;DHT22;62686;48.984;8.394;2024-02-26T01:20:44;7.80;99.90
38866;DHT22;62686;48.984;8.394;2024-02-26T01:23:13;7.80;99.90
38866;DHT22;62686;48.984;8.394;2024-02-26T01:25:41;7.90;99.90
38866;DHT22;62686;48.984;8.394;2024-02-26T01:28:10;8.00;99.90
38866;DHT22;62686;48.984;8.394;2024-02-26T01:30:42;8.00;99.90
38866;DHT22;62686;48.984;8.394;2024-02-26T01:33:10;8.10;99.90
38866;DHT22;62686;48.984;8.394;2024-02-26T01:35:38;8.20;99.90
38866;DHT22;62686;48.984;8.394;2024-02-26T01:38:07;8.10;99.90
38866;DHT22;62686;48.984;8.394;2024-02-26T01:40:35;8.00;99.90
38866;DHT22;62686;48.984;8.394;2024-02-26T01:43:04;7.90;99.90
38866;DHT22;62686;48.984;8.394;2024-02-26T01:45:32;7.80;99.90
38866;DHT22;62686;48.984;8.394;2024-02-26T01:48:02;7.80;99.90
38866;DHT22;62686;48.984;8.394;2024-02-26T01:50:31;7.80;99.90
38866;DHT22;62686;48.984;8.394;2024-02-26T01:53:01;7.80;99.90
38866;DHT22;62686;48.984;8.394;2024-02-26T01:55:30;7.90;99.90
38866;DHT22;62686;48.984;8.394;2024-02-26T01:57:58;7.80;99.90
38866;DHT22;62686;48.984;8.394;2024-02-26T02:00:27;7.90;99.90
38866;DHT22;62686;48.984;8.394;2024-02-26T02:02:56;8.00;99.90
38866;DHT22;62686;48.984;8.394;2024-02-26T02:05:26;8.10;99.90
38866;DHT22;62686;48.984;8.394;2024-02-26T02:07:54;8.00;99.90
38866;DHT22;62686;48.984;8.394;2024-02-26T02:10:23;7.80;99.90
38866;DHT22;62686;48.984;8.394;2024-02-26T02:12:53;7.60;99.90
38866;DHT22;62686;48.984;8.394;2024-02-26T02:15:22;7.50;99.90
38866;DHT22;62686;48.984;8.394;2024-02-26T02:17:50;7.50;99.90
38866;DHT22;62686;48.984;8.394;2024-02-26T02:20:19;7.40;99.90
38866;DHT22;62686;48.984;8.394;2024-02-26T02:22:54;7.20;99.90
38866;DHT22;62686;48.984;8.394;2024-02-26T02:25:22;7.10;99.90
38866;DHT22;62686;48.984;8.394;2024-02-26T02:27:50;7.10;99.90
38866;DHT22;62686;48.984;8.394;2024-02-26T02:30:21;7.00;99.90
38866;DHT22;62686;48.984;8.394;2024-02-26T02:32:51;6.90;99.90
38866;DHT22;62686;48.984;8.394;2024-02-26T02:35:19;6.90;99.90
38866;DHT22;62686;48.984;8.394;2024-02-26T02:37:50;6.80;99.90
38866;DHT22;62686;48.984;8.394;2024-02-26T02:40:20;6.80;99.90
38866;DHT22;62686;48.984;8.394;2024-02-26T02:42:48;6.70;99.90
38866;DHT22;62686;48.984;8.394;2024-02-26T02:45:16;6.70;99.90
38866;DHT22;62686;48.984;8.394;2024-02-26T02:47:45;6.70;99.90
38866;DHT22;62686;48.984;8.394;2024-02-26T02:50:13;6.70;99.90
38866;DHT22;62686;48.984;8.394;2024-02-26T02:52:42;6.60;99.90
38866;DHT22;62686;48.984;8.394;2024-02-26T02:55:12;6.60;99.90
38866;DHT22;62686;48.984;8.394;2024-02-26T02:57:40;6.50;99.90
38866;DHT22;62686;48.984;8.394;2024-02-26T03:00:10;6.60;99.90
38866;DHT22;62686;48.984;8.394;2024-02-26T03:02:39;6.60;99.90
38866;DHT22;62686;48.984;8.394;2024-02-26T03:05:08;6.60;99.90
38866;DHT22;62686;48.984;8.394;2024-02-26T03:07:37;6.50;99.90
38866;DHT22;62686;48.984;8.394;2024-02-26T03:10:06;6.50;99.90
38866;DHT22;62686;48.984;8.394;2024-02-26T03:12:36;6.50;99.90
38866;DHT22;62686;48.984;8.394;2024-02-26T03:15:05;6.60;99.90
38866;DHT22;62686;48.984;8.394;2024-02-26T03:17:34;6.60;99.90
38866;DHT22;62686;48.984;8.394;2024-02-26T03:20:03;6.60;99.90
38866;DHT22;62686;48.984;8.394;2024-02-26T03:22:34;6.70;99.90
38866;DHT22;62686;48.984;8.394;2024-02-26T03:25:03;6.70;99.90
38866;DHT22;62686;48.984;8.394;2024-02-26T03:27:32;6.70;99.90
38866;DHT22;62686;48.984;8.394;2024-02-26T03:30:03;6.70;99.90
38866;DHT22;62686;48.984;8.394;2024-02-26T03:32:34;6.70;99.90
38866;DHT22;62686;48.984;8.394;2024-02-26T03:35:04;6.80;99.90
38866;DHT22;62686;48.984;8.394;2024-02-26T03:37:34;6.70;99.90
38866;DHT22;62686;48.984;8.394;2024-02-26T03:40:03;6.80;99.90
38866;DHT22;62686;48.984;8.394;2024-02-26T03:42:33;6.90;99.90
38866;DHT22;62686;48.984;8.394;2024-02-26T03:45:03;6.90;99.90
38866;DHT22;62686;48.984;8.394;2024-02-26T03:47:31;6.80;99.90
38866;DHT22;62686;48.984;8.394;2024-02-26T03:50:00;6.80;99.90
38866;DHT22;62686;48.984;8.394;2024-02-26T03:52:28;6.80;99.90
38866;DHT22;62686;48.984;8.394;2024-02-26T03:54:57;6.70;99.90
38866;DHT22;62686;48.984;8.394;2024-02-26T03:57:25;6.70;99.90
38866;DHT22;62686;48.984;8.394;2024-02-26T03:59:53;6.70;99.90
38866;DHT22;62686;48.984;8.394;2024-02-26T04:02:24;6.70;99.90
38866;DHT22;62686;48.984;8.394;2024-02-26T04:04:53;6.60;99.90
38866;DHT22;62686;48.984;8.394;2024-02-26T04:07:22;6.70;99.90
38866;DHT22;62686;48.984;8.394;2024-02-26T04:09:50;6.70;99.90
38866;DHT22;62686;48.984;8.394;2024-02-26T04:12:19;6.80;99.90
38866;DHT22;62686;48.984;8.394;2024-02-26T04:14:47;6.70;99.90
38866;DHT22;62686;48.984;8.394;2024-02-26T04:17:16;6.60;99.90
38866;DHT22;62686;48.984;8.394;2024-02-26T04:19:46;6.60;99.90
38866;DHT22;62686;48.984;8.394;2024-02-26T04:22:14;6.60;99.90
38866;DHT22;62686;48.984;8.394;2024-02-26T04:24:42;6.60;99.90
38866;DHT22;62686;48.984;8.394;2024-02-26T04:27:11;6.50;99.90
38866;DHT22;62686;48.984;8.394;2024-02-26T04:29:39;6.50;99.90
38866;DHT22;62686;48.984;8.394;2024-02-26T04:32:08;6.40;99.90
38866;DHT22;62686;48.984;8.394;2024-02-26T04:34:36;6.40;99.90
38866;DHT22;62686;48.984;8.394;2024-02-26T04:37:06;6.50;99.90
38866;DHT22;62686;48.984;8.394;2024-02-26T04:39:34;6.50;99.90
38866;DHT22;62686;48.984;8.394;2024-02-26T04:42:03;6.60;99.90
38866;DHT22;62686;48.984;8.394;2024-02-26T04:44:32;6.60;99.90
38866;DHT22;62686;48.984;8.394;2024-02-26T04:47:00;6.70;99.90
38866;DHT22;62686;48.984;8.394;2024-02-26T04:49:29;6.70;99.90
38866;DHT22;62686;48.984;8.394;2024-02-26T04:51:57;6.60;99.90
38866;DHT22;62686;48.984;8.394;2024-02-26T04:54:27;6.60;99.90
38866;DHT22;62686;48.984;8.394;2024-02-26T04:56:56;6.60;99.90
38866;DHT22;62686;48.984;8.394;2024-02-26T04:59:24;6.60;99.90
38866;DHT22;62686;48.984;8.394;2024-02-26T05:01:52;6.50;99.90
38866;DHT22;62686;48.984;8.394;2024-02-26T05:04:21;6.50;99.90
38866;DHT22;62686;48.984;8.394;2024-02-26T05:06:49;6.50;99.90
38866;DHT22;62686;48.984;8.394;2024-02-26T05:09:18;6.50;99.90
38866;DHT22;62686;48.984;8.394;2024-02-26T05:11:48;6.50;99.90
38866;DHT22;62686;48.984;8.394;2024-02-26T05:14:16;6.40;99.90
38866;DHT22;62686;48.984;8.394;2024-02-26T05:16:44;6.50;99.90
38866;DHT22;62686;48.984;8.394;2024-02-26T05:19:13;6.60;99.90
38866;DHT22;62686;48.984;8.394;2024-02-26T05:21:42;6.60;99.90
38866;DHT22;62686;48.984;8.394;2024-02-26T05:24:11;6.60;99.90
38866;DHT22;62686;48.984;8.394;2024-02-26T05:26:39;6.60;99.90
38866;DHT22;62686;48.984;8.394;2024-02-26T05:29:09;6.60;99.90
38866;DHT22;62686;48.984;8.394;2024-02-26T05:31:37;6.60;99.90
38866;DHT22;62686;48.984;8.394;2024-02-26T05:34:06;6.60;99.90
38866;DHT22;62686;48.984;8.394;2024-02-26T05:36:34;6.60;99.90
38866;DHT22;62686;48.984;8.394;2024-02-26T05:39:03;6.60;99.90
38866;DHT22;62686;48.984;8.394;2024-02-26T05:41:31;6.60;99.90
38866;DHT22;62686;48.984;8.394;2024-02-26T05:44:00;6.80;99.90
38866;DHT22;62686;48.984;8.394;2024-02-26T05:46:30;6.90;99.90
38866;DHT22;62686;48.984;8.394;2024-02-26T05:48:58;6.80;99.90
38866;DHT22;62686;48.984;8.394;2024-02-26T05:51:26;6.80;99.90
38866;DHT22;62686;48.984;8.394;2024-02-26T05:53:55;6.80;99.90
38866;DHT22;62686;48.984;8.394;2024-02-26T05:56:24;6.70;99.90
38866;DHT22;62686;48.984;8.394;2024-02-26T05:58:53;6.70;99.90
38866;DHT22;62686;48.984;8.394;2024-02-26T06:01:24;6.70;99.90
38866;DHT22;62686;48.984;8.394;2024-02-26T06:03:54;6.70;99.90
38866;DHT22;62686;48.984;8.394;2024-02-26T06:06:22;6.60;99.90
38866;DHT22;62686;48.984;8.394;2024-02-26T06:08:51;6.60;99.90
38866;DHT22;62686;48.984;8.394;2024-02-26T06:11:19;6.50;99.90
38866;DHT22;62686;48.984;8.394;2024-02-26T06:13:49;6.50;99.90
38866;DHT22;62686;48.984;8.394;2024-02-26T06:16:18;6.50;99.90
38866;DHT22;62686;48.984;8.394;2024-02-26T06:18:46;6.50;99.90
38866;DHT22;62686;48.984;8.394;2024-02-26T06:21:16;6.50;99.90
38866;DHT22;62686;48.984;8.394;2024-02-26T06:23:44;6.50;99.90
38866;DHT22;62686;48.984;8.394;2024-02-26T06:26:13;6.50;99.90
38866;DHT22;62686;48.984;8.394;2024-02-26T06:28:41;6.50;99.90
38866;DHT22;62686;48.984;8.394;2024-02-26T06:31:10;6.50;99.90
38866;DHT22;62686;48.984;8.394;2024-02-26T06:33:38;6.50;99.90
38866;DHT22;62686;48.984;8.394;2024-02-26T06:36:07;6.50;99.90
38866;DHT22;62686;48.984;8.394;2024-02-26T06:38:37;6.60;99.90
38866;DHT22;62686;48.984;8.394;2024-02-26T06:41:05;6.60;99.90
38866;DHT22;62686;48.984;8.394;2024-02-26T06:43:33;6.70;99.90
38866;DHT22;62686;48.984;8.394;2024-02-26T06:46:02;6.70;99.90
38866;DHT22;62686;48.984;8.394;2024-02-26T06:48:31;6.80;99.90
38866;DHT22;62686;48.984;8.394;2024-02-26T06:50:59;6.90;99.90
38866;DHT22;62686;48.984;8.394;2024-02-26T06:53:27;6.90;99.90
38866;DHT22;62686;48.984;8.394;2024-02-26T06:55:57;6.90;99.90
38866;DHT22;62686;48.984;8.394;2024-02-26T06:58:26;7.00;99.90
38866;DHT22;62686;48.984;8.394;2024-02-26T07:00:54;7.00;99.90
38866;DHT22;62686;48.984;8.394;2024-02-26T07:03:22;7.00;99.90
38866;DHT22;62686;48.984;8.394;2024-02-26T07:05:52;7.10;99.90
38866;DHT22;62686;48.984;8.394;2024-02-26T07:08:21;7.10;99.90
38866;DHT22;62686;48.984;8.394;2024-02-26T07:10:49;7.10;99.90
38866;DHT22;62686;48.984;8.394;2024-02-26T07:13:19;7.10;99.90
38866;DHT22;62686;48.984;8.394;2024-02-26T07:15:47;7.10;99.90
38866;DHT22;62686;48.984;8.394;2024-02-26T07:18:16;7.10;99.90
38866;DHT22;62686;48.984;8.394;2024-02-26T07:20:44;7.10;99.90
38866;DHT22;62686;48.984;8.394;2024-02-26T07:23:13;7.20;99.90
38866;DHT22;62686;48.984;8.394;2024-02-26T07:25:41;7.20;99.90
38866;DHT22;62686;48.984;8.394;2024-02-26T07:28:12;7.30;99.90
38866;DHT22;62686;48.984;8.394;2024-02-26T07:30:42;7.30;99.90
38866;DHT22;62686;48.984;8.394;2024-02-26T07:33:10;7.30;99.90
38866;DHT22;62686;48.984;8.394;2024-02-26T07:35:38;7.30;99.90
38866;DHT22;62686;48.984;8.394;2024-02-26T07:38:07;7.40;99.90
38866;DHT22;62686;48.984;8.394;2024-02-26T07:40:37;7.50;99.90
38866;DHT22;62686;48.984;8.394;2024-02-26T07:43:10;7.50;99.90
38866;DHT22;62686;48.984;8.394;2024-02-26T07:45:38;7.60;99.90
38866;DHT22;62686;48.984;8.394;2024-02-26T07:48:09;7.80;99.90
38866;DHT22;62686;48.984;8.394;2024-02-26T07:50:37;7.90;99.90
38866;DHT22;62686;48.984;8.394;2024-02-26T07:53:07;7.90;99.90
38866;DHT22;62686;48.984;8.394;2024-02-26T07:55:35;8.00;99.90
38866;DHT22;62686;48.984;8.394;2024-02-26T07:58:04;8.00;99.90
38866;DHT22;62686;48.984;8.394;2024-02-26T08:00:33;8.00;99.90
38866;DHT22;62686;48.984;8.394;2024-02-26T08:03:02;8.00;99.90
38866;DHT22;62686;48.984;8.394;2024-02-26T08:05:32;8.00;99.90
38866;DHT22;62686;48.984;8.394;2024-02-26T08:08:01;8.00;99.90
38866;DHT22;62686;48.984;8.394;2024-02-26T08:10:29;8.00;99.90
38866;DHT22;62686;48.984;8.394;2024-02-26T08:12:59;8.10;99.90
38866;DHT22;62686;48.984;8.394;2024-02-26T08:15:32;8.10;99.90
38866;DHT22;62686;48.984;8.394;2024-02-26T08:18:01;8.10;99.90
38866;DHT22;62686;48.984;8.394;2024-02-26T08:20:32;8.10;99.90
38866;DHT22;62686;48.984;8.394;2024-02-26T08:23:01;8.30;99.90
38866;DHT22;62686;48.984;8.394;2024-02-26T08:25:29;8.40;99.90
38866;DHT22;62686;48.984;8.394;2024-02-26T08:27:58;8.60;99.90
38866;DHT22;62686;48.984;8.394;2024-02-26T08:30:26;8.80;99.90
38866;DHT22;62686;48.984;8.394;2024-02-26T08:32:55;9.10;99.90
38866;DHT22;62686;48.984;8.394;2024-02-26T08:35:23;9.30;99.90
38866;DHT22;62686;48.984;8.394;2024-02-26T08:37:53;9.50;99.90
38866;DHT22;62686;48.984;8.394;2024-02-26T08:40:22;9.70;99.90
38866;DHT22;62686;48.984;8.394;2024-02-26T08:42:50;9.70;99.90
38866;DHT22;62686;48.984;8.394;2024-02-26T08:45:19;9.70;99.90
38866;DHT22;62686;48.984;8.394;2024-02-26T08:47:47;9.70;99.90
38866;DHT22;62686;48.984;8.394;2024-02-26T08:50:16;9.70;99.90
38866;DHT22;62686;48.984;8.394;2024-02-26T08:52:44;10.00;99.90
38866;DHT22;62686;48.984;8.394;2024-02-26T08:55:17;10.10;99.90
38866;DHT22;62686;48.984;8.394;2024-02-26T08:57:46;10.20;99.90
38866;DHT22;62686;48.984;8.394;2024-02-26T09:00:16;10.30;99.90
38866;DHT22;62686;48.984;8.394;2024-02-26T09:02:47;10.50;99.90
38866;DHT22;62686;48.984;8.394;2024-02-26T09:05:16;10.60;99.90
38866;DHT22;62686;48.984;8.394;2024-02-26T09:07:44;10.60;99.90
38866;DHT22;62686;48.984;8.394;2024-02-26T09:10:13;10.90;99.90
38866;DHT22;62686;48.984;8.394;2024-02-26T09:12:43;11.10;99.90
38866;DHT22;62686;48.984;8.394;2024-02-26T09:15:12;11.30;99.90
38866;DHT22;62686;48.984;8.394;2024-02-26T09:17:40;11.30;99.90
38866;DHT22;62686;48.984;8.394;2024-02-26T09:20:09;11.30;99.90
38866;DHT22;62686;48.984;8.394;2024-02-26T09:22:41;11.30;99.90
38866;DHT22;62686;48.984;8.394;2024-02-26T09:25:10;11.30;99.90
38866;DHT22;62686;48.984;8.394;2024-02-26T09:27:43;11.40;99.90
38866;DHT22;62686;48.984;8.394;2024-02-26T09:30:12;11.40;99.90
38866;DHT22;62686;48.984;8.394;2024-02-26T09:32:46;11.40;99.90
38866;DHT22;62686;48.984;8.394;2024-02-26T09:35:16;11.40;99.90
38866;DHT22;62686;48.984;8.394;2024-02-26T09:37:45;11.50;99.90
38866;DHT22;62686;48.984;8.394;2024-02-26T09:40:13;11.60;99.90
38866;DHT22;62686;48.984;8.394;2024-02-26T10:37:25;13.00;99.90
38866;DHT22;62686;48.984;8.394;2024-02-26T12:46:11;20.40;99.90
38866;DHT22;62686;48.984;8.394;2024-02-26T14:55:08;18.10;99.90
38866;DHT22;62686;48.984;8.394;2024-02-26T15:20:03;15.10;99.90
38866;DHT22;62686;48.984;8.394;2024-02-26T15:22:34;15.00;99.90
38866;DHT22;62686;48.984;8.394;2024-02-26T15:25:03;14.80;99.90
38866;DHT22;62686;48.984;8.394;2024-02-26T15:27:32;14.80;99.90
38866;DHT22;62686;48.984;8.394;2024-02-26T15:30:01;14.70;99.90
38866;DHT22;62686;48.984;8.394;2024-02-26T15:32:29;14.60;99.90
38866;DHT22;62686;48.984;8.394;2024-02-26T15:34:58;14.60;99.90
38866;DHT22;62686;48.984;8.394;2024-02-26T15:37:28;14.60;99.90
38866;DHT22;62686;48.984;8.394;2024-02-26T15:39:56;14.50;99.90
38866;DHT22;62686;48.984;8.394;2024-02-26T15:42:24;14.40;99.90
38866;DHT22;62686;48.984;8.394;2024-02-26T15:44:53;14.30;99.90
38866;DHT22;62686;48.984;8.394;2024-02-26T15:47:22;14.20;99.90
38866;DHT22;62686;48.984;8.394;2024-02-26T15:49:50;14.10;99.90
38866;DHT22;62686;48.984;8.394;2024-02-26T15:52:18;13.90;99.90
38866;DHT22;62686;48.984;8.394;2024-02-26T15:54:48;13.80;99.90
38866;DHT22;62686;48.984;8.394;2024-02-26T15:57:17;13.80;99.90
38866;DHT22;62686;48.984;8.394;2024-02-26T15:59:45;13.70;99.90
38866;DHT22;62686;48.984;8.394;2024-02-26T16:02:15;13.60;99.90
38866;DHT22;62686;48.984;8.394;2024-02-26T16:04:43;13.60;99.90
38866;DHT22;62686;48.984;8.394;2024-02-26T16:07:19;13.60;99.90
38866;DHT22;62686;48.984;8.394;2024-02-26T16:09:52;13.60;99.90
38866;DHT22;62686;48.984;8.394;2024-02-26T16:12:27;13.50;99.90
38866;DHT22;62686;48.984;8.394;2024-02-26T16:15:04;13.30;99.90
38866;DHT22;62686;48.984;8.394;2024-02-26T16:17:38;13.20;99.90
38866;DHT22;62686;48.984;8.394;2024-02-26T16:20:14;13.20;99.90
38866;DHT22;62686;48.984;8.394;2024-02-26T16:22:45;13.10;99.90
38866;DHT22;62686;48.984;8.394;2024-02-26T16:25:15;13.00;99.90
38866;DHT22;62686;48.984;8.394;2024-02-26T16:27:44;12.90;99.90
38866;DHT22;62686;48.984;8.394;2024-02-26T16:30:13;12.90;99.90
38866;DHT22;62686;48.984;8.394;2024-02-26T16:32:42;12.90;99.90
38866;DHT22;62686;48.984;8.394;2024-02-26T16:35:11;13.00;99.90
38866;DHT22;62686;48.984;8.394;2024-02-26T16:37:40;13.00;99.90
38866;DHT22;62686;48.984;8.394;2024-02-26T16:40:09;13.00;99.90
38866;DHT22;62686;48.984;8.394;2024-02-26T16:42:43;13.00;99.90
38866;DHT22;62686;48.984;8.394;2024-02-26T16:45:12;13.00;99.90
38866;DHT22;62686;48.984;8.394;2024-02-26T16:47:40;12.90;99.90
38866;DHT22;62686;48.984;8.394;2024-02-26T16:50:10;12.80;99.90
38866;DHT22;62686;48.984;8.394;2024-02-26T16:52:39;12.80;99.90
38866;DHT22;62686;48.984;8.394;2024-02-26T16:55:08;12.80;99.90
38866;DHT22;62686;48.984;8.394;2024-02-26T16:57:36;12.70;99.90
38866;DHT22;62686;48.984;8.394;2024-02-26T17:00:08;12.70;99.90
38866;DHT22;62686;48.984;8.394;2024-02-26T17:02:39;12.60;99.90
38866;DHT22;62686;48.984;8.394;2024-02-26T17:05:07;12.60;99.90
38866;DHT22;62686;48.984;8.394;2024-02-26T17:07:37;12.60;99.90
38866;DHT22;62686;48.984;8.394;2024-02-26T17:10:07;12.60;99.90
38866;DHT22;62686;48.984;8.394;2024-02-26T17:12:36;12.50;99.90
38866;DHT22;62686;48.984;8.394;2024-02-26T17:15:06;12.40;99.90
38866;DHT22;62686;48.984;8.394;2024-02-26T17:17:35;12.30;99.90
38866;DHT22;62686;48.984;8.394;2024-02-26T17:20:05;12.40;99.90
38866;DHT22;62686;48.984;8.394;2024-02-26T17:22:34;12.30;99.90
38866;DHT22;62686;48.984;8.394;2024-02-26T17:25:04;12.40;99.90
38866;DHT22;62686;48.984;8.394;2024-02-26T17:27:33;12.40;99.90
38866;DHT22;62686;48.984;8.394;2024-02-26T17:30:02;12.40;99.90
38866;DHT22;62686;48.984;8.394;2024-02-26T17:32:32;12.30;99.90
38866;DHT22;62686;48.984;8.394;2024-02-26T17:35:00;12.20;99.90
38866;DHT22;62686;48.984;8.394;2024-02-26T17:37:30;12.20;99.90
38866;DHT22;62686;48.984;8.394;2024-02-26T17:39:59;12.20;99.90
38866;DHT22;62686;48.984;8.394;2024-02-26T17:42:28;12.30;99.90
38866;DHT22;62686;48.984;8.394;2024-02-26T17:44:57;12.30;99.90
38866;DHT22;62686;48.984;8.394;2024-02-26T17:47:25;12.20;99.90
38866;DHT22;62686;48.984;8.394;2024-02-26T17:49:55;12.20;99.90
38866;DHT22;62686;48.984;8.394;2024-02-26T17:52:24;12.10;99.90
38866;DHT22;62686;48.984;8.394;2024-02-26T17:54:52;12.20;99.90
38866;DHT22;62686;48.984;8.394;2024-02-26T17:57:20;12.20;99.90
38866;DHT22;62686;48.984;8.394;2024-02-26T17:59:49;12.10;99.90
38866;DHT22;62686;48.984;8.394;2024-02-26T18:02:17;12.10;99.90
38866;DHT22;62686;48.984;8.394;2024-02-26T18:04:47;12.10;99.90
38866;DHT22;62686;48.984;8.394;2024-02-26T18:07:17;12.10;99.90
38866;DHT22;62686;48.984;8.394;2024-02-26T18:09:45;12.10;99.90
38866;DHT22;62686;48.984;8.394;2024-02-26T18:12:14;12.10;99.90
38866;DHT22;62686;48.984;8.394;2024-02-26T18:14:42;12.20;99.90
38866;DHT22;62686;48.984;8.394;2024-02-26T18:17:11;12.20;99.90
38866;DHT22;62686;48.984;8.394;2024-02-26T18:19:39;12.20;99.90
38866;DHT22;62686;48.984;8.394;2024-02-26T18:22:08;12.10;99.90
38866;DHT22;62686;48.984;8.394;2024-02-26T18:24:38;12.10;99.90
38866;DHT22;62686;48.984;8.394;2024-02-26T18:27:06;12.10;99.90
38866;DHT22;62686;48.984;8.394;2024-02-26T18:29:35;12.10;99.90
38866;DHT22;62686;48.984;8.394;2024-02-26T18:32:04;12.10;99.90
38866;DHT22;62686;48.984;8.394;2024-02-26T18:34:33;12.00;99.90
38866;DHT22;62686;48.984;8.394;2024-02-26T18:37:03;12.00;99.90
38866;DHT22;62686;48.984;8.394;2024-02-26T18:39:33;12.00;99.90
38866;DHT22;62686;48.984;8.394;2024-02-26T18:42:03;11.90;99.90
38866;DHT22;62686;48.984;8.394;2024-02-26T18:44:33;11.90;99.90
38866;DHT22;62686;48.984;8.394;2024-02-26T18:47:02;11.90;99.90
38866;DHT22;62686;48.984;8.394;2024-02-26T18:49:31;11.90;99.90
38866;DHT22;62686;48.984;8.394;2024-02-26T18:52:03;11.80;99.90
38866;DHT22;62686;48.984;8.394;2024-02-26T18:54:32;11.80;99.90
38866;DHT22;62686;48.984;8.394;2024-02-26T18:57:04;11.70;99.90
38866;DHT22;62686;48.984;8.394;2024-02-26T18:59:33;11.70;99.90
38866;DHT22;62686;48.984;8.394;2024-02-26T19:02:02;11.70;99.90
38866;DHT22;62686;48.984;8.394;2024-02-26T19:04:31;11.60;99.90
38866;DHT22;62686;48.984;8.394;2024-02-26T19:07:00;11.50;99.90
38866;DHT22;62686;48.984;8.394;2024-02-26T19:09:29;11.50;99.90
38866;DHT22;62686;48.984;8.394;2024-02-26T19:11:58;11.40;99.90
38866;DHT22;62686;48.984;8.394;2024-02-26T19:14:28;11.40;99.90
38866;DHT22;62686;48.984;8.394;2024-02-26T19:16:58;11.40;99.90
38866;DHT22;62686;48.984;8.394;2024-02-26T19:19:27;11.50;99.90
38866;DHT22;62686;48.984;8.394;2024-02-26T19:21:57;11.40;99.90
38866;DHT22;62686;48.984;8.394;2024-02-26T19:24:25;11.40;99.90
38866;DHT22;62686;48.984;8.394;2024-02-26T19:26:54;11.30;99.90
38866;DHT22;62686;48.984;8.394;2024-02-26T19:29:23;11.30;99.90
38866;DHT22;62686;48.984;8.394;2024-02-26T19:31:53;11.20;99.90
38866;DHT22;62686;48.984;8.394;2024-02-26T19:34:22;11.20;99.90
38866;DHT22;62686;48.984;8.394;2024-02-26T19:36:50;11.10;99.90
38866;DHT22;62686;48.984;8.394;2024-02-26T19:39:19;11.00;99.90
38866;DHT22;62686;48.984;8.394;2024-02-26T19:41:47;11.00;99.90
38866;DHT22;62686;48.984;8.394;2024-02-26T19:44:16;11.00;99.90
38866;DHT22;62686;48.984;8.394;2024-02-26T19:46:44;11.00;99.90
38866;DHT22;62686;48.984;8.394;2024-02-26T19:49:14;11.00;99.90
38866;DHT22;62686;48.984;8.394;2024-02-26T19:54:25;10.90;99.90
38866;DHT22;62686;48.984;8.394;2024-02-26T19:56:53;10.90;99.90
38866;DHT22;62686;48.984;8.394;2024-02-26T19:59:22;10.90;99.90
38866;DHT22;62686;48.984;8.394;2024-02-26T20:01:50;10.80;99.90
38866;DHT22;62686;48.984;8.394;2024-02-26T20:04:20;10.80;99.90
38866;DHT22;62686;48.984;8.394;2024-02-26T20:06:48;10.80;99.90
38866;DHT22;62686;48.984;8.394;2024-02-26T20:11:52;10.60;99.90
38866;DHT22;62686;48.984;8.394;2024-02-26T20:14:21;10.70;99.90
38866;DHT22;62686;48.984;8.394;2024-02-26T20:16:51;10.60;99.90
38866;DHT22;62686;48.984;8.394;2024-02-26T20:19:21;10.60;99.90
38866;DHT22;62686;48.984;8.394;2024-02-26T20:21:49;10.60;99.90
38866;DHT22;62686;48.984;8.394;2024-02-26T20:24:19;10.50;99.90
38866;DHT22;62686;48.984;8.394;2024-02-26T20:26:48;10.50;99.90
38866;DHT22;62686;48.984;8.394;2024-02-26T20:29:16;10.50;99.90
38866;DHT22;62686;48.984;8.394;2024-02-26T20:31:45;10.40;99.90
38866;DHT22;62686;48.984;8.394;2024-02-26T20:34:14;10.40;99.90
38866;DHT22;62686;48.984;8.394;2024-02-26T20:36:44;10.40;99.90
38866;DHT22;62686;48.984;8.394;2024-02-26T20:39:13;10.40;99.90
38866;DHT22;62686;48.984;8.394;2024-02-26T20:41:41;10.40;99.90
38866;DHT22;62686;48.984;8.394;2024-02-26T20:44:09;10.40;99.90
38866;DHT22;62686;48.984;8.394;2024-02-26T20:46:40;10.40;99.90
38866;DHT22;62686;48.984;8.394;2024-02-26T20:49:09;10.40;99.90
38866;DHT22;62686;48.984;8.394;2024-02-26T20:51:38;10.40;99.90
38866;DHT22;62686;48.984;8.394;2024-02-26T20:54:08;10.40;99.90
38866;DHT22;62686;48.984;8.394;2024-02-26T20:56:38;10.40;99.90
38866;DHT22;62686;48.984;8.394;2024-02-26T20:59:06;10.30;99.90
38866;DHT22;62686;48.984;8.394;2024-02-26T21:01:35;10.30;99.90
38866;DHT22;62686;48.984;8.394;2024-02-26T21:04:05;10.30;99.90
38866;DHT22;62686;48.984;8.394;2024-02-26T21:06:34;10.30;99.90
38866;DHT22;62686;48.984;8.394;2024-02-26T21:09:03;10.20;99.90
38866;DHT22;62686;48.984;8.394;2024-02-26T21:11:35;10.20;99.90
38866;DHT22;62686;48.984;8.394;2024-02-26T21:14:03;10.20;99.90
38866;DHT22;62686;48.984;8.394;2024-02-26T21:16:33;10.30;99.90
38866;DHT22;62686;48.984;8.394;2024-02-26T21:19:02;10.30;99.90
38866;DHT22;62686;48.984;8.394;2024-02-26T21:21:32;10.20;99.90
38866;DHT22;62686;48.984;8.394;2024-02-26T21:24:03;10.10;99.90
38866;DHT22;62686;48.984;8.394;2024-02-26T21:26:31;10.10;99.90
38866;DHT22;62686;48.984;8.394;2024-02-26T21:29:02;10.10;99.90
38866;DHT22;62686;48.984;8.394;2024-02-26T21:31:34;10.00;99.90
38866;DHT22;62686;48.984;8.394;2024-02-26T21:34:04;10.00;99.90
38866;DHT22;62686;48.984;8.394;2024-02-26T21:36:32;9.90;99.90
38866;DHT22;62686;48.984;8.394;2024-02-26T21:39:02;10.00;99.90